sensor_id;sensor_type;location;lat;lon;timestamp;P1;durP1;ratioP1;P2;durP2;ratioP2
8708;SDS011;4391;48.678;9.280;2023-05-07T00:00:44;6.68;;;2.95;;
8708;SDS011;4391;48.678;9.280;2023-05-07T00:03:12;6.32;;;2.60;;
8708;SDS011;4391;48.678;9.280;2023-05-07T00:05:39;8.20;;;3.13;;
8708;SDS011;4391;48.678;9.280;2023-05-07T00:08:06;10.73;;;3.22;;
8708;SDS011;4391;48.678;9.280;2023-05-07T00:10:33;7.25;;;3.30;;
8708;SDS011;4391;48.678;9.280;2023-05-07T00:13:00;6.78;;;3.10;;
8708;SDS011;4391;48.678;9.280;2023-05-07T00:15:27;7.20;;;3.05;;
8708;SDS011;4391;48.678;9.280;2023-05-07T00:17:53;7.33;;;3.13;;
8708;SDS011;4391;48.678;9.280;2023-05-07T00:20:23;5.45;;;2.70;;
8708;SDS011;4391;48.678;9.280;2023-05-07T00:22:50;5.85;;;2.75;;
8708;SDS011;4391;48.678;9.280;2023-05-07T00:25:17;5.97;;;3.28;;
8708;SDS011;4391;48.678;9.280;2023-05-07T00:27:45;7.40;;;3.08;;
8708;SDS011;4391;48.678;9.280;2023-05-07T00:30:12;6.00;;;3.00;;
8708;SDS011;4391;48.678;9.280;2023-05-07T00:32:39;7.25;;;3.15;;
8708;SDS011;4391;48.678;9.280;2023-05-07T00:35:07;7.35;;;3.00;;
8708;SDS011;4391;48.678;9.280;2023-05-07T00:37:35;6.07;;;3.08;;
8708;SDS011;4391;48.678;9.280;2023-05-07T00:40:03;8.20;;;3.20;;
8708;SDS011;4391;48.678;9.280;2023-05-07T00:42:32;6.93;;;3.17;;
8708;SDS011;4391;48.678;9.280;2023-05-07T00:44:59;7.10;;;3.10;;
8708;SDS011;4391;48.678;9.280;2023-05-07T00:47:25;7.72;;;3.17;;
8708;SDS011;4391;48.678;9.280;2023-05-07T00:49:52;6.05;;;3.10;;
8708;SDS011;4391;48.678;9.280;2023-05-07T00:52:20;6.20;;;3.00;;
8708;SDS011;4391;48.678;9.280;2023-05-07T00:54:52;5.57;;;2.90;;
8708;SDS011;4391;48.678;9.280;2023-05-07T00:57:20;6.00;;;2.78;;
8708;SDS011;4391;48.678;9.280;2023-05-07T00:59:47;5.43;;;2.53;;
8708;SDS011;4391;48.678;9.280;2023-05-07T01:02:15;7.45;;;2.83;;
8708;SDS011;4391;48.678;9.280;2023-05-07T01:04:43;7.75;;;3.13;;
8708;SDS011;4391;48.678;9.280;2023-05-07T01:07:10;4.87;;;2.67;;
8708;SDS011;4391;48.678;9.280;2023-05-07T01:09:37;7.85;;;2.67;;
8708;SDS011;4391;48.678;9.280;2023-05-07T01:12:06;5.47;;;2.50;;
8708;SDS011;4391;48.678;9.280;2023-05-07T01:14:33;5.80;;;2.92;;
8708;SDS011;4391;48.678;9.280;2023-05-07T01:17:00;6.80;;;3.30;;
8708;SDS011;4391;48.678;9.280;2023-05-07T01:19:28;5.30;;;2.67;;
8708;SDS011;4391;48.678;9.280;2023-05-07T01:21:57;6.72;;;2.70;;
8708;SDS011;4391;48.678;9.280;2023-05-07T01:24:31;6.68;;;3.05;;
8708;SDS011;4391;48.678;9.280;2023-05-07T01:26:58;6.72;;;2.97;;
8708;SDS011;4391;48.678;9.280;2023-05-07T01:29:26;9.13;;;3.25;;
8708;SDS011;4391;48.678;9.280;2023-05-07T01:31:53;6.27;;;3.30;;
8708;SDS011;4391;48.678;9.280;2023-05-07T01:34:23;5.22;;;2.50;;
8708;SDS011;4391;48.678;9.280;2023-05-07T01:36:52;5.65;;;2.75;;
8708;SDS011;4391;48.678;9.280;2023-05-07T01:39:20;6.13;;;3.00;;
8708;SDS011;4391;48.678;9.280;2023-05-07T01:41:49;8.23;;;2.85;;
8708;SDS011;4391;48.678;9.280;2023-05-07T01:44:15;7.20;;;2.80;;
8708;SDS011;4391;48.678;9.280;2023-05-07T01:46:44;5.10;;;2.47;;
8708;SDS011;4391;48.678;9.280;2023-05-07T01:49:12;6.80;;;2.80;;
8708;SDS011;4391;48.678;9.280;2023-05-07T01:51:39;7.03;;;3.20;;
8708;SDS011;4391;48.678;9.280;2023-05-07T01:54:06;5.60;;;2.63;;
8708;SDS011;4391;48.678;9.280;2023-05-07T01:56:33;7.27;;;3.50;;
8708;SDS011;4391;48.678;9.280;2023-05-07T01:59:01;5.57;;;2.70;;
8708;SDS011;4391;48.678;9.280;2023-05-07T02:01:28;6.55;;;2.45;;
8708;SDS011;4391;48.678;9.280;2023-05-07T02:03:55;6.75;;;2.78;;
8708;SDS011;4391;48.678;9.280;2023-05-07T02:06:22;6.30;;;2.85;;
8708;SDS011;4391;48.678;9.280;2023-05-07T02:08:49;5.80;;;3.00;;
8708;SDS011;4391;48.678;9.280;2023-05-07T02:11:16;6.18;;;2.70;;
8708;SDS011;4391;48.678;9.280;2023-05-07T02:13:42;5.47;;;2.80;;
8708;SDS011;4391;48.678;9.280;2023-05-07T02:16:11;5.00;;;2.95;;
8708;SDS011;4391;48.678;9.280;2023-05-07T02:18:40;7.63;;;3.17;;
8708;SDS011;4391;48.678;9.280;2023-05-07T02:21:07;7.03;;;3.07;;
8708;SDS011;4391;48.678;9.280;2023-05-07T02:23:33;5.82;;;2.88;;
8708;SDS011;4391;48.678;9.280;2023-05-07T02:26:00;5.60;;;2.50;;
8708;SDS011;4391;48.678;9.280;2023-05-07T02:28:27;6.68;;;3.00;;
8708;SDS011;4391;48.678;9.280;2023-05-07T02:30:54;6.00;;;2.70;;
8708;SDS011;4391;48.678;9.280;2023-05-07T02:33:24;5.13;;;2.80;;
8708;SDS011;4391;48.678;9.280;2023-05-07T02:35:51;5.78;;;2.97;;
8708;SDS011;4391;48.678;9.280;2023-05-07T02:38:18;8.95;;;3.08;;
8708;SDS011;4391;48.678;9.280;2023-05-07T02:40:45;6.65;;;3.08;;
8708;SDS011;4391;48.678;9.280;2023-05-07T02:43:12;6.15;;;3.20;;
8708;SDS011;4391;48.678;9.280;2023-05-07T02:45:38;8.60;;;3.20;;
8708;SDS011;4391;48.678;9.280;2023-05-07T02:48:05;7.00;;;3.75;;
8708;SDS011;4391;48.678;9.280;2023-05-07T02:50:33;7.43;;;3.22;;
8708;SDS011;4391;48.678;9.280;2023-05-07T02:53:00;6.55;;;3.55;;
8708;SDS011;4391;48.678;9.280;2023-05-07T02:55:27;8.63;;;3.28;;
8708;SDS011;4391;48.678;9.280;2023-05-07T02:57:54;7.77;;;3.00;;
8708;SDS011;4391;48.678;9.280;2023-05-07T03:00:21;5.60;;;2.90;;
8708;SDS011;4391;48.678;9.280;2023-05-07T03:02:48;6.45;;;2.95;;
8708;SDS011;4391;48.678;9.280;2023-05-07T03:05:15;7.28;;;3.28;;
8708;SDS011;4391;48.678;9.280;2023-05-07T03:07:44;7.35;;;2.97;;
8708;SDS011;4391;48.678;9.280;2023-05-07T03:10:11;5.43;;;2.63;;
8708;SDS011;4391;48.678;9.280;2023-05-07T03:12:37;7.20;;;2.78;;
8708;SDS011;4391;48.678;9.280;2023-05-07T03:15:05;6.00;;;2.90;;
8708;SDS011;4391;48.678;9.280;2023-05-07T03:17:33;6.63;;;3.00;;
8708;SDS011;4391;48.678;9.280;2023-05-07T03:19:59;6.05;;;2.78;;
8708;SDS011;4391;48.678;9.280;2023-05-07T03:22:26;5.23;;;2.47;;
8708;SDS011;4391;48.678;9.280;2023-05-07T03:24:54;5.95;;;2.20;;
8708;SDS011;4391;48.678;9.280;2023-05-07T03:27:21;5.63;;;2.45;;
8708;SDS011;4391;48.678;9.280;2023-05-07T03:29:48;6.55;;;2.72;;
8708;SDS011;4391;48.678;9.280;2023-05-07T03:32:15;6.47;;;2.70;;
8708;SDS011;4391;48.678;9.280;2023-05-07T03:34:42;5.97;;;2.83;;
8708;SDS011;4391;48.678;9.280;2023-05-07T03:37:08;6.50;;;2.85;;
8708;SDS011;4391;48.678;9.280;2023-05-07T03:39:35;6.10;;;2.50;;
8708;SDS011;4391;48.678;9.280;2023-05-07T03:42:04;7.10;;;2.90;;
8708;SDS011;4391;48.678;9.280;2023-05-07T03:44:30;5.93;;;2.55;;
8708;SDS011;4391;48.678;9.280;2023-05-07T03:46:57;5.70;;;2.50;;
8708;SDS011;4391;48.678;9.280;2023-05-07T03:49:24;4.97;;;2.60;;
8708;SDS011;4391;48.678;9.280;2023-05-07T03:51:51;4.30;;;2.22;;
8708;SDS011;4391;48.678;9.280;2023-05-07T03:54:18;4.93;;;2.70;;
8708;SDS011;4391;48.678;9.280;2023-05-07T03:56:44;6.80;;;2.67;;
8708;SDS011;4391;48.678;9.280;2023-05-07T03:59:13;5.53;;;2.70;;
8708;SDS011;4391;48.678;9.280;2023-05-07T04:01:40;6.75;;;2.85;;
8708;SDS011;4391;48.678;9.280;2023-05-07T04:04:06;6.35;;;3.30;;
8708;SDS011;4391;48.678;9.280;2023-05-07T04:06:33;7.43;;;3.03;;
8708;SDS011;4391;48.678;9.280;2023-05-07T04:09:00;7.18;;;3.13;;
8708;SDS011;4391;48.678;9.280;2023-05-07T04:11:27;6.47;;;3.30;;
8708;SDS011;4391;48.678;9.280;2023-05-07T04:13:54;7.30;;;3.90;;
8708;SDS011;4391;48.678;9.280;2023-05-07T04:16:22;6.20;;;2.95;;
8708;SDS011;4391;48.678;9.280;2023-05-07T04:18:49;7.75;;;2.85;;
8708;SDS011;4391;48.678;9.280;2023-05-07T04:21:16;6.60;;;3.10;;
8708;SDS011;4391;48.678;9.280;2023-05-07T04:23:43;6.73;;;3.20;;
8708;SDS011;4391;48.678;9.280;2023-05-07T04:26:10;6.70;;;3.40;;
8708;SDS011;4391;48.678;9.280;2023-05-07T04:28:37;8.15;;;3.05;;
8708;SDS011;4391;48.678;9.280;2023-05-07T04:31:05;6.07;;;2.85;;
8708;SDS011;4391;48.678;9.280;2023-05-07T04:33:33;8.20;;;2.90;;
8708;SDS011;4391;48.678;9.280;2023-05-07T04:36:01;6.27;;;3.00;;
8708;SDS011;4391;48.678;9.280;2023-05-07T04:38:28;6.95;;;2.75;;
8708;SDS011;4391;48.678;9.280;2023-05-07T04:40:56;6.10;;;2.97;;
8708;SDS011;4391;48.678;9.280;2023-05-07T04:43:23;7.40;;;3.20;;
8708;SDS011;4391;48.678;9.280;2023-05-07T04:45:50;5.03;;;2.53;;
8708;SDS011;4391;48.678;9.280;2023-05-07T04:48:17;4.87;;;2.57;;
8708;SDS011;4391;48.678;9.280;2023-05-07T04:50:48;4.60;;;2.60;;
8708;SDS011;4391;48.678;9.280;2023-05-07T04:53:15;6.60;;;2.90;;
8708;SDS011;4391;48.678;9.280;2023-05-07T04:55:42;5.13;;;2.60;;
8708;SDS011;4391;48.678;9.280;2023-05-07T04:58:10;6.03;;;2.63;;
8708;SDS011;4391;48.678;9.280;2023-05-07T05:00:37;5.70;;;3.07;;
8708;SDS011;4391;48.678;9.280;2023-05-07T05:03:04;6.85;;;3.20;;
8708;SDS011;4391;48.678;9.280;2023-05-07T05:05:32;6.18;;;3.40;;
8708;SDS011;4391;48.678;9.280;2023-05-07T05:08:00;7.88;;;3.97;;
8708;SDS011;4391;48.678;9.280;2023-05-07T05:10:27;7.80;;;4.13;;
8708;SDS011;4391;48.678;9.280;2023-05-07T05:12:54;9.60;;;4.50;;
8708;SDS011;4391;48.678;9.280;2023-05-07T05:15:20;9.25;;;3.70;;
8708;SDS011;4391;48.678;9.280;2023-05-07T05:17:47;8.15;;;4.32;;
8708;SDS011;4391;48.678;9.280;2023-05-07T05:20:14;6.22;;;4.00;;
8708;SDS011;4391;48.678;9.280;2023-05-07T05:22:41;6.80;;;4.20;;
8708;SDS011;4391;48.678;9.280;2023-05-07T05:25:10;8.40;;;3.67;;
8708;SDS011;4391;48.678;9.280;2023-05-07T05:27:36;8.15;;;3.88;;
8708;SDS011;4391;48.678;9.280;2023-05-07T05:30:04;7.30;;;3.60;;
8708;SDS011;4391;48.678;9.280;2023-05-07T05:32:31;7.53;;;4.00;;
8708;SDS011;4391;48.678;9.280;2023-05-07T05:34:58;7.65;;;3.47;;
8708;SDS011;4391;48.678;9.280;2023-05-07T05:37:25;7.37;;;3.43;;
8708;SDS011;4391;48.678;9.280;2023-05-07T05:39:52;8.45;;;3.67;;
8708;SDS011;4391;48.678;9.280;2023-05-07T05:42:21;8.05;;;3.40;;
8708;SDS011;4391;48.678;9.280;2023-05-07T05:44:47;9.40;;;3.85;;
8708;SDS011;4391;48.678;9.280;2023-05-07T05:47:14;7.60;;;3.95;;
8708;SDS011;4391;48.678;9.280;2023-05-07T05:49:41;8.60;;;3.90;;
8708;SDS011;4391;48.678;9.280;2023-05-07T05:52:09;7.35;;;3.53;;
8708;SDS011;4391;48.678;9.280;2023-05-07T05:54:36;9.88;;;3.90;;
8708;SDS011;4391;48.678;9.280;2023-05-07T05:57:03;7.35;;;3.67;;
8708;SDS011;4391;48.678;9.280;2023-05-07T05:59:32;6.43;;;2.90;;
8708;SDS011;4391;48.678;9.280;2023-05-07T06:01:59;15.00;;;7.57;;
8708;SDS011;4391;48.678;9.280;2023-05-07T06:04:26;7.60;;;3.05;;
8708;SDS011;4391;48.678;9.280;2023-05-07T06:06:52;7.15;;;2.50;;
8708;SDS011;4391;48.678;9.280;2023-05-07T06:09:19;5.70;;;2.40;;
8708;SDS011;4391;48.678;9.280;2023-05-07T06:11:46;5.03;;;2.20;;
8708;SDS011;4391;48.678;9.280;2023-05-07T06:14:15;6.53;;;2.30;;
8708;SDS011;4391;48.678;9.280;2023-05-07T06:16:44;4.80;;;2.33;;
8708;SDS011;4391;48.678;9.280;2023-05-07T06:19:10;10.13;;;4.10;;
8708;SDS011;4391;48.678;9.280;2023-05-07T06:21:38;5.57;;;2.58;;
8708;SDS011;4391;48.678;9.280;2023-05-07T06:24:06;5.72;;;2.50;;
8708;SDS011;4391;48.678;9.280;2023-05-07T06:26:33;5.53;;;2.57;;
8708;SDS011;4391;48.678;9.280;2023-05-07T06:29:00;5.53;;;2.65;;
8708;SDS011;4391;48.678;9.280;2023-05-07T06:31:29;6.78;;;2.25;;
8708;SDS011;4391;48.678;9.280;2023-05-07T06:33:58;4.70;;;2.33;;
8708;SDS011;4391;48.678;9.280;2023-05-07T06:36:25;4.82;;;2.58;;
8708;SDS011;4391;48.678;9.280;2023-05-07T06:38:52;4.30;;;2.17;;
8708;SDS011;4391;48.678;9.280;2023-05-07T06:41:19;8.20;;;2.80;;
8708;SDS011;4391;48.678;9.280;2023-05-07T06:43:46;4.57;;;2.17;;
8708;SDS011;4391;48.678;9.280;2023-05-07T06:46:13;6.35;;;2.25;;
8708;SDS011;4391;48.678;9.280;2023-05-07T06:48:40;10.00;;;2.30;;
8708;SDS011;4391;48.678;9.280;2023-05-07T06:51:08;5.13;;;2.40;;
8708;SDS011;4391;48.678;9.280;2023-05-07T06:53:35;5.43;;;1.80;;
8708;SDS011;4391;48.678;9.280;2023-05-07T06:56:02;6.00;;;2.33;;
8708;SDS011;4391;48.678;9.280;2023-05-07T06:58:29;5.18;;;2.05;;
8708;SDS011;4391;48.678;9.280;2023-05-07T07:00:56;4.28;;;2.10;;
8708;SDS011;4391;48.678;9.280;2023-05-07T07:03:23;5.30;;;2.43;;
8708;SDS011;4391;48.678;9.280;2023-05-07T07:05:51;5.85;;;2.35;;
8708;SDS011;4391;48.678;9.280;2023-05-07T07:08:20;4.43;;;2.20;;
8708;SDS011;4391;48.678;9.280;2023-05-07T07:10:48;5.32;;;2.00;;
8708;SDS011;4391;48.678;9.280;2023-05-07T07:13:14;3.78;;;1.90;;
8708;SDS011;4391;48.678;9.280;2023-05-07T07:15:41;4.20;;;2.10;;
8708;SDS011;4391;48.678;9.280;2023-05-07T07:18:09;4.85;;;1.98;;
8708;SDS011;4391;48.678;9.280;2023-05-07T07:20:36;6.00;;;1.90;;
8708;SDS011;4391;48.678;9.280;2023-05-07T07:23:02;4.93;;;2.40;;
8708;SDS011;4391;48.678;9.280;2023-05-07T07:25:31;4.10;;;2.00;;
8708;SDS011;4391;48.678;9.280;2023-05-07T07:27:57;6.60;;;1.90;;
8708;SDS011;4391;48.678;9.280;2023-05-07T07:30:24;5.50;;;2.58;;
8708;SDS011;4391;48.678;9.280;2023-05-07T07:32:52;6.28;;;2.03;;
8708;SDS011;4391;48.678;9.280;2023-05-07T07:35:19;4.53;;;2.08;;
8708;SDS011;4391;48.678;9.280;2023-05-07T07:37:46;6.53;;;2.10;;
8708;SDS011;4391;48.678;9.280;2023-05-07T07:40:14;6.60;;;2.70;;
8708;SDS011;4391;48.678;9.280;2023-05-07T07:42:43;6.35;;;2.83;;
8708;SDS011;4391;48.678;9.280;2023-05-07T07:45:10;7.72;;;2.00;;
8708;SDS011;4391;48.678;9.280;2023-05-07T07:47:37;4.53;;;2.25;;
8708;SDS011;4391;48.678;9.280;2023-05-07T07:50:05;3.70;;;2.17;;
8708;SDS011;4391;48.678;9.280;2023-05-07T07:52:33;4.47;;;2.30;;
8708;SDS011;4391;48.678;9.280;2023-05-07T07:55:00;4.93;;;2.30;;
8708;SDS011;4391;48.678;9.280;2023-05-07T07:57:27;4.65;;;1.88;;
8708;SDS011;4391;48.678;9.280;2023-05-07T07:59:56;4.57;;;1.70;;
8708;SDS011;4391;48.678;9.280;2023-05-07T08:02:23;3.85;;;1.90;;
8708;SDS011;4391;48.678;9.280;2023-05-07T08:04:50;4.40;;;2.10;;
8708;SDS011;4391;48.678;9.280;2023-05-07T08:07:17;4.00;;;1.90;;
8708;SDS011;4391;48.678;9.280;2023-05-07T08:09:45;4.70;;;2.00;;
8708;SDS011;4391;48.678;9.280;2023-05-07T08:12:12;4.13;;;2.25;;
8708;SDS011;4391;48.678;9.280;2023-05-07T08:14:41;5.50;;;2.25;;
8708;SDS011;4391;48.678;9.280;2023-05-07T08:17:09;7.17;;;2.40;;
8708;SDS011;4391;48.678;9.280;2023-05-07T08:19:36;3.92;;;1.75;;
8708;SDS011;4391;48.678;9.280;2023-05-07T08:22:03;4.07;;;1.80;;
8708;SDS011;4391;48.678;9.280;2023-05-07T08:24:30;5.75;;;2.10;;
8708;SDS011;4391;48.678;9.280;2023-05-07T08:26:57;3.95;;;1.98;;
8708;SDS011;4391;48.678;9.280;2023-05-07T08:29:24;8.03;;;2.40;;
8708;SDS011;4391;48.678;9.280;2023-05-07T08:31:51;4.78;;;2.30;;
8708;SDS011;4391;48.678;9.280;2023-05-07T08:34:19;4.68;;;1.90;;
8708;SDS011;4391;48.678;9.280;2023-05-07T08:36:47;5.50;;;2.17;;
8708;SDS011;4391;48.678;9.280;2023-05-07T08:39:14;4.30;;;2.08;;
8708;SDS011;4391;48.678;9.280;2023-05-07T08:41:42;4.13;;;2.20;;
8708;SDS011;4391;48.678;9.280;2023-05-07T08:44:11;5.65;;;2.10;;
8708;SDS011;4391;48.678;9.280;2023-05-07T08:46:42;5.47;;;2.10;;
8708;SDS011;4391;48.678;9.280;2023-05-07T08:49:13;4.43;;;2.33;;
8708;SDS011;4391;48.678;9.280;2023-05-07T08:51:42;5.70;;;2.38;;
8708;SDS011;4391;48.678;9.280;2023-05-07T08:54:09;6.30;;;1.80;;
8708;SDS011;4391;48.678;9.280;2023-05-07T08:56:37;5.32;;;2.45;;
8708;SDS011;4391;48.678;9.280;2023-05-07T08:59:05;4.75;;;1.80;;
8708;SDS011;4391;48.678;9.280;2023-05-07T09:01:31;5.22;;;1.90;;
8708;SDS011;4391;48.678;9.280;2023-05-07T09:04:00;6.00;;;2.10;;
8708;SDS011;4391;48.678;9.280;2023-05-07T09:06:27;3.40;;;1.70;;
8708;SDS011;4391;48.678;9.280;2023-05-07T09:08:56;3.55;;;1.60;;
8708;SDS011;4391;48.678;9.280;2023-05-07T09:11:26;4.50;;;1.75;;
8708;SDS011;4391;48.678;9.280;2023-05-07T09:13:53;5.15;;;1.90;;
8708;SDS011;4391;48.678;9.280;2023-05-07T09:16:21;3.88;;;1.70;;
8708;SDS011;4391;48.678;9.280;2023-05-07T09:18:50;4.30;;;1.47;;
8708;SDS011;4391;48.678;9.280;2023-05-07T09:21:18;5.88;;;1.60;;
8708;SDS011;4391;48.678;9.280;2023-05-07T09:23:47;5.53;;;1.65;;
8708;SDS011;4391;48.678;9.280;2023-05-07T09:26:16;3.90;;;1.70;;
8708;SDS011;4391;48.678;9.280;2023-05-07T09:28:43;3.60;;;1.40;;
8708;SDS011;4391;48.678;9.280;2023-05-07T09:31:11;4.63;;;1.73;;
8708;SDS011;4391;48.678;9.280;2023-05-07T09:33:38;3.13;;;1.27;;
8708;SDS011;4391;48.678;9.280;2023-05-07T09:36:05;6.70;;;1.67;;
8708;SDS011;4391;48.678;9.280;2023-05-07T09:38:34;4.38;;;1.65;;
8708;SDS011;4391;48.678;9.280;2023-05-07T09:41:02;3.92;;;1.30;;
8708;SDS011;4391;48.678;9.280;2023-05-07T09:43:33;3.37;;;1.60;;
8708;SDS011;4391;48.678;9.280;2023-05-07T09:46:02;4.00;;;1.63;;
8708;SDS011;4391;48.678;9.280;2023-05-07T09:48:32;4.32;;;1.70;;
8708;SDS011;4391;48.678;9.280;2023-05-07T09:51:03;3.67;;;1.60;;
8708;SDS011;4391;48.678;9.280;2023-05-07T09:53:34;4.72;;;1.60;;
8708;SDS011;4391;48.678;9.280;2023-05-07T09:56:02;4.37;;;1.80;;
8708;SDS011;4391;48.678;9.280;2023-05-07T09:58:29;7.07;;;1.50;;
8708;SDS011;4391;48.678;9.280;2023-05-07T10:00:59;3.30;;;1.40;;
8708;SDS011;4391;48.678;9.280;2023-05-07T10:03:27;3.25;;;1.50;;
8708;SDS011;4391;48.678;9.280;2023-05-07T10:05:57;4.40;;;1.70;;
8708;SDS011;4391;48.678;9.280;2023-05-07T10:08:25;4.70;;;1.67;;
8708;SDS011;4391;48.678;9.280;2023-05-07T10:10:52;4.55;;;1.52;;
8708;SDS011;4391;48.678;9.280;2023-05-07T10:13:19;5.45;;;1.40;;
8708;SDS011;4391;48.678;9.280;2023-05-07T10:15:46;4.28;;;1.60;;
8708;SDS011;4391;48.678;9.280;2023-05-07T10:18:15;3.38;;;1.42;;
8708;SDS011;4391;48.678;9.280;2023-05-07T10:20:42;3.10;;;1.33;;
8708;SDS011;4391;48.678;9.280;2023-05-07T10:23:13;3.42;;;1.40;;
8708;SDS011;4391;48.678;9.280;2023-05-07T10:25:44;6.47;;;1.50;;
8708;SDS011;4391;48.678;9.280;2023-05-07T10:28:12;2.97;;;1.30;;
8708;SDS011;4391;48.678;9.280;2023-05-07T10:30:44;3.95;;;1.60;;
8708;SDS011;4391;48.678;9.280;2023-05-07T10:33:24;3.77;;;1.60;;
8708;SDS011;4391;48.678;9.280;2023-05-07T10:35:55;4.55;;;1.42;;
8708;SDS011;4391;48.678;9.280;2023-05-07T10:38:26;6.32;;;1.38;;
8708;SDS011;4391;48.678;9.280;2023-05-07T10:40:54;4.15;;;1.63;;
8708;SDS011;4391;48.678;9.280;2023-05-07T10:43:21;3.45;;;1.50;;
8708;SDS011;4391;48.678;9.280;2023-05-07T10:46:09;4.07;;;1.87;;
8708;SDS011;4391;48.678;9.280;2023-05-07T10:51:37;3.15;;;1.40;;
8708;SDS011;4391;48.678;9.280;2023-05-07T10:56:49;4.57;;;1.60;;
8708;SDS011;4391;48.678;9.280;2023-05-07T10:59:35;4.17;;;1.30;;
8708;SDS011;4391;48.678;9.280;2023-05-07T11:02:08;4.30;;;1.37;;
8708;SDS011;4391;48.678;9.280;2023-05-07T11:04:37;4.10;;;1.45;;
8708;SDS011;4391;48.678;9.280;2023-05-07T11:07:18;3.80;;;1.40;;
8708;SDS011;4391;48.678;9.280;2023-05-07T11:09:54;4.03;;;1.40;;
8708;SDS011;4391;48.678;9.280;2023-05-07T11:18:04;4.70;;;1.60;;
8708;SDS011;4391;48.678;9.280;2023-05-07T11:20:49;5.18;;;1.70;;
8708;SDS011;4391;48.678;9.280;2023-05-07T11:26:24;2.78;;;1.23;;
8708;SDS011;4391;48.678;9.280;2023-05-07T11:28:51;4.10;;;1.23;;
8708;SDS011;4391;48.678;9.280;2023-05-07T11:31:23;4.77;;;1.30;;
8708;SDS011;4391;48.678;9.280;2023-05-07T11:33:51;3.50;;;1.10;;
8708;SDS011;4391;48.678;9.280;2023-05-07T11:36:21;2.97;;;0.95;;
8708;SDS011;4391;48.678;9.280;2023-05-07T11:38:49;3.92;;;1.40;;
8708;SDS011;4391;48.678;9.280;2023-05-07T11:41:16;6.03;;;1.90;;
8708;SDS011;4391;48.678;9.280;2023-05-07T11:43:54;4.00;;;1.20;;
8708;SDS011;4391;48.678;9.280;2023-05-07T11:46:22;2.88;;;1.10;;
8708;SDS011;4391;48.678;9.280;2023-05-07T11:48:49;3.55;;;1.10;;
8708;SDS011;4391;48.678;9.280;2023-05-07T11:51:21;2.70;;;1.10;;
8708;SDS011;4391;48.678;9.280;2023-05-07T11:53:49;4.93;;;1.40;;
8708;SDS011;4391;48.678;9.280;2023-05-07T11:56:17;4.32;;;1.30;;
8708;SDS011;4391;48.678;9.280;2023-05-07T11:58:45;4.10;;;1.10;;
8708;SDS011;4391;48.678;9.280;2023-05-07T12:01:13;6.45;;;1.30;;
8708;SDS011;4391;48.678;9.280;2023-05-07T12:03:42;4.70;;;1.20;;
8708;SDS011;4391;48.678;9.280;2023-05-07T12:06:11;4.50;;;1.70;;
8708;SDS011;4391;48.678;9.280;2023-05-07T12:08:40;3.28;;;1.30;;
8708;SDS011;4391;48.678;9.280;2023-05-07T12:11:08;4.07;;;1.40;;
8708;SDS011;4391;48.678;9.280;2023-05-07T12:13:36;3.40;;;1.30;;
8708;SDS011;4391;48.678;9.280;2023-05-07T12:16:03;3.83;;;1.50;;
8708;SDS011;4391;48.678;9.280;2023-05-07T12:18:32;4.23;;;1.30;;
8708;SDS011;4391;48.678;9.280;2023-05-07T12:21:04;4.57;;;1.40;;
8708;SDS011;4391;48.678;9.280;2023-05-07T12:23:32;3.83;;;1.45;;
8708;SDS011;4391;48.678;9.280;2023-05-07T12:26:01;3.28;;;1.40;;
8708;SDS011;4391;48.678;9.280;2023-05-07T12:28:29;4.15;;;1.35;;
8708;SDS011;4391;48.678;9.280;2023-05-07T12:30:56;5.77;;;1.30;;
8708;SDS011;4391;48.678;9.280;2023-05-07T12:33:24;2.25;;;0.80;;
8708;SDS011;4391;48.678;9.280;2023-05-07T12:35:54;3.10;;;1.00;;
8708;SDS011;4391;48.678;9.280;2023-05-07T12:38:21;2.90;;;1.08;;
8708;SDS011;4391;48.678;9.280;2023-05-07T12:40:49;2.80;;;1.10;;
8708;SDS011;4391;48.678;9.280;2023-05-07T12:43:18;3.23;;;1.20;;
8708;SDS011;4391;48.678;9.280;2023-05-07T12:45:46;3.22;;;1.27;;
8708;SDS011;4391;48.678;9.280;2023-05-07T12:48:15;4.00;;;1.73;;
8708;SDS011;4391;48.678;9.280;2023-05-07T12:50:42;4.15;;;1.30;;
8708;SDS011;4391;48.678;9.280;2023-05-07T12:53:09;8.55;;;1.83;;
8708;SDS011;4391;48.678;9.280;2023-05-07T12:55:41;4.87;;;2.03;;
8708;SDS011;4391;48.678;9.280;2023-05-07T12:58:20;6.22;;;1.80;;
8708;SDS011;4391;48.678;9.280;2023-05-07T13:00:49;5.35;;;1.63;;
8708;SDS011;4391;48.678;9.280;2023-05-07T13:03:23;2.90;;;1.30;;
8708;SDS011;4391;48.678;9.280;2023-05-07T13:05:52;5.13;;;1.80;;
8708;SDS011;4391;48.678;9.280;2023-05-07T13:08:29;4.07;;;1.60;;
8708;SDS011;4391;48.678;9.280;2023-05-07T13:10:57;5.60;;;1.17;;
8708;SDS011;4391;48.678;9.280;2023-05-07T13:13:29;2.92;;;0.98;;
8708;SDS011;4391;48.678;9.280;2023-05-07T13:15:56;2.70;;;1.00;;
8708;SDS011;4391;48.678;9.280;2023-05-07T13:18:24;5.35;;;1.25;;
8708;SDS011;4391;48.678;9.280;2023-05-07T13:20:51;2.73;;;0.97;;
8708;SDS011;4391;48.678;9.280;2023-05-07T13:23:21;3.50;;;1.30;;
8708;SDS011;4391;48.678;9.280;2023-05-07T13:25:48;3.63;;;1.45;;
8708;SDS011;4391;48.678;9.280;2023-05-07T13:28:16;2.35;;;1.08;;
8708;SDS011;4391;48.678;9.280;2023-05-07T13:30:44;4.97;;;1.30;;
8708;SDS011;4391;48.678;9.280;2023-05-07T13:33:11;4.70;;;1.43;;
8708;SDS011;4391;48.678;9.280;2023-05-07T13:35:38;5.22;;;1.20;;
8708;SDS011;4391;48.678;9.280;2023-05-07T13:38:05;4.05;;;1.60;;
8708;SDS011;4391;48.678;9.280;2023-05-07T13:40:32;4.90;;;1.90;;
8708;SDS011;4391;48.678;9.280;2023-05-07T13:42:58;5.00;;;2.10;;
8708;SDS011;4391;48.678;9.280;2023-05-07T13:45:27;5.53;;;2.03;;
8708;SDS011;4391;48.678;9.280;2023-05-07T13:47:56;4.15;;;1.75;;
8708;SDS011;4391;48.678;9.280;2023-05-07T13:50:23;5.43;;;1.73;;
8708;SDS011;4391;48.678;9.280;2023-05-07T13:52:51;4.30;;;1.80;;
8708;SDS011;4391;48.678;9.280;2023-05-07T13:55:22;9.60;;;2.50;;
8708;SDS011;4391;48.678;9.280;2023-05-07T13:57:54;6.87;;;2.07;;
8708;SDS011;4391;48.678;9.280;2023-05-07T14:00:22;5.50;;;1.85;;
8708;SDS011;4391;48.678;9.280;2023-05-07T14:02:50;4.00;;;1.60;;
8708;SDS011;4391;48.678;9.280;2023-05-07T14:05:18;4.28;;;1.10;;
8708;SDS011;4391;48.678;9.280;2023-05-07T14:07:45;5.13;;;1.75;;
8708;SDS011;4391;48.678;9.280;2023-05-07T14:10:14;11.53;;;1.80;;
8708;SDS011;4391;48.678;9.280;2023-05-07T14:12:41;6.90;;;2.20;;
8708;SDS011;4391;48.678;9.280;2023-05-07T14:15:08;6.95;;;1.90;;
8708;SDS011;4391;48.678;9.280;2023-05-07T14:17:35;5.78;;;1.95;;
8708;SDS011;4391;48.678;9.280;2023-05-07T14:20:02;8.02;;;2.25;;
8708;SDS011;4391;48.678;9.280;2023-05-07T14:22:32;9.80;;;2.43;;
8708;SDS011;4391;48.678;9.280;2023-05-07T14:24:59;5.10;;;2.50;;
8708;SDS011;4391;48.678;9.280;2023-05-07T14:27:26;7.57;;;2.70;;
8708;SDS011;4391;48.678;9.280;2023-05-07T14:29:53;5.30;;;2.08;;
8708;SDS011;4391;48.678;9.280;2023-05-07T14:32:20;5.25;;;2.42;;
8708;SDS011;4391;48.678;9.280;2023-05-07T14:34:47;6.17;;;2.40;;
8708;SDS011;4391;48.678;9.280;2023-05-07T14:37:15;4.75;;;2.38;;
8708;SDS011;4391;48.678;9.280;2023-05-07T14:39:46;7.80;;;2.72;;
8708;SDS011;4391;48.678;9.280;2023-05-07T14:42:13;5.50;;;2.78;;
8708;SDS011;4391;48.678;9.280;2023-05-07T14:44:40;7.68;;;3.05;;
8708;SDS011;4391;48.678;9.280;2023-05-07T14:47:07;6.73;;;2.77;;
8708;SDS011;4391;48.678;9.280;2023-05-07T14:49:34;9.45;;;2.50;;
8708;SDS011;4391;48.678;9.280;2023-05-07T14:52:01;8.48;;;3.40;;
8708;SDS011;4391;48.678;9.280;2023-05-07T14:54:33;10.90;;;3.67;;
8708;SDS011;4391;48.678;9.280;2023-05-07T14:57:01;7.28;;;3.30;;
8708;SDS011;4391;48.678;9.280;2023-05-07T14:59:28;6.63;;;2.67;;
8708;SDS011;4391;48.678;9.280;2023-05-07T15:01:55;9.45;;;2.95;;
8708;SDS011;4391;48.678;9.280;2023-05-07T15:04:23;14.13;;;3.15;;
8708;SDS011;4391;48.678;9.280;2023-05-07T15:06:51;6.28;;;2.80;;
8708;SDS011;4391;48.678;9.280;2023-05-07T15:09:19;7.80;;;3.08;;
8708;SDS011;4391;48.678;9.280;2023-05-07T15:11:47;8.40;;;3.40;;
8708;SDS011;4391;48.678;9.280;2023-05-07T15:14:15;9.52;;;3.40;;
8708;SDS011;4391;48.678;9.280;2023-05-07T15:16:43;7.63;;;2.97;;
8708;SDS011;4391;48.678;9.280;2023-05-07T15:19:10;7.30;;;2.80;;
8708;SDS011;4391;48.678;9.280;2023-05-07T15:21:37;9.05;;;2.78;;
8708;SDS011;4391;48.678;9.280;2023-05-07T15:24:04;5.50;;;2.23;;
8708;SDS011;4391;48.678;9.280;2023-05-07T15:26:31;5.70;;;2.30;;
8708;SDS011;4391;48.678;9.280;2023-05-07T15:28:58;10.25;;;2.50;;
8708;SDS011;4391;48.678;9.280;2023-05-07T15:31:30;5.72;;;2.13;;
8708;SDS011;4391;48.678;9.280;2023-05-07T15:33:59;7.10;;;2.42;;